Time;durP1;ratioP1;P1;durP2;ratioP2;P2;SDS_P1;SDS_P2;PMS_P1;PMS_P2;Temp;Humidity;BMP_temperature;BMP_pressure;BME280_temperature;BME280_humidity;BME280_pressure;Samples;Min_cycle;Max_cycle;Signal;HPM_P1;HPM_P2
2020/12/07 00:00:46;;;;;;;;;;;;;;;-10.00;82.60;103013.13;1867514;76;20218;-36
2020/12/07 00:03:14;;;;;;;;;;;;;;;-10.01;82.64;103006.26;1867410;77;20171;-36
2020/12/07 00:05:42;;;;;;;;;;;;;;;-10.01;82.67;102992.67;1867561;76;20143;-35
2020/12/07 00:08:11;;;;;;;;;;;;;;;-10.04;82.72;102999.59;1867246;76;20397;-37
2020/12/07 00:10:39;;;;;;;;;;;;;;;-10.05;82.77;102982.61;1867489;76;20151;-36
2020/12/07 00:13:07;;;;;;;;;;;;;;;-10.05;82.81;102986.78;1867580;76;20138;-36
2020/12/07 00:15:37;;;;;;;;;;;;;;;-10.05;82.88;102999.45;1867384;76;20127;-36
2020/12/07 00:18:05;;;;;;;;;;;;;;;-10.07;82.92;102988.78;1867323;76;20217;-35
2020/12/07 00:20:33;;;;;;;;;;;;;;;-10.08;82.96;102985.71;1867333;76;20249;-34
2020/12/07 00:23:01;;;;;;;;;;;;;;;-10.08;83.00;102992.05;1868288;75;20126;-34
2020/12/07 00:25:29;;;;;;;;;;;;;;;-10.09;83.04;102980.11;1867441;76;20140;-37
2020/12/07 00:27:58;;;;;;;;;;;;;;;-10.10;83.08;102992.25;1867348;76;20267;-38
2020/12/07 00:30:26;;;;;;;;;;;;;;;-10.12;83.12;102985.25;1867580;76;20144;-35
2020/12/07 00:32:54;;;;;;;;;;;;;;;-10.14;83.17;102989.26;1867378;76;20136;-36
2020/12/07 00:35:21;;;;;;;;;;;;;;;-10.16;83.23;102992.00;1867413;77;20133;-36
2020/12/07 00:37:49;;;;;;;;;;;;;;;-10.19;83.27;102985.03;1867286;76;20140;-36
2020/12/07 00:40:17;;;;;;;;;;;;;;;-10.20;83.32;102974.36;1867499;77;20164;-36
2020/12/07 00:42:44;;;;;;;;;;;;;;;-10.21;83.41;102966.22;1867407;76;20161;-35
2020/12/07 00:45:13;;;;;;;;;;;;;;;-10.21;83.45;102973.83;1867254;77;20287;-36
2020/12/07 00:47:41;;;;;;;;;;;;;;;-10.21;83.51;102964.95;1867374;76;20169;-36
2020/12/07 00:50:09;;;;;;;;;;;;;;;-10.23;83.55;102970.22;1867505;77;20128;-35
2020/12/07 00:52:37;;;;;;;;;;;;;;;-10.24;83.60;102957.02;1867445;77;20132;-36
2020/12/07 00:55:05;;;;;;;;;;;;;;;-10.24;83.65;102968.42;1867135;77;20184;-36
2020/12/07 00:57:33;;;;;;;;;;;;;;;-10.23;83.69;102965.16;1867492;77;20246;-36
2020/12/07 01:00:03;;;;;;;;;;;;;;;-10.24;83.70;102973.89;1874650;76;20132;-37
2020/12/07 01:02:34;;;;;;;;;;;;;;;-10.26;83.70;102970.30;1867340;75;20120;-36
2020/12/07 01:05:04;;;;;;;;;;;;;;;-10.27;83.72;102974.83;1867578;77;20180;-35
2020/12/07 01:07:35;;;;;;;;;;;;;;;-10.28;83.75;102973.03;1867538;76;20131;-37
2020/12/07 01:10:04;;;;;;;;;;;;;;;-10.30;83.77;102969.06;1867409;77;20640;-35
2020/12/07 01:12:33;;;;;;;;;;;;;;;-10.31;83.80;102968.56;1867534;76;20168;-37
2020/12/07 01:15:01;;;;;;;;;;;;;;;-10.30;83.89;102961.83;1867291;77;20394;-37
2020/12/07 01:17:30;;;;;;;;;;;;;;;-10.30;83.87;102952.59;1867681;77;20146;-36
2020/12/07 01:20:00;;;;;;;;;;;;;;;-10.31;83.89;102937.24;1866892;76;20464;-37
2020/12/07 01:22:29;;;;;;;;;;;;;;;-10.30;83.90;102954.22;1867371;77;20142;-37
2020/12/07 01:24:58;;;;;;;;;;;;;;;-10.31;83.89;102953.36;1867562;75;20407;-35
2020/12/07 01:27:28;;;;;;;;;;;;;;;-10.32;83.89;102960.42;1865990;77;20186;-35
2020/12/07 01:29:56;;;;;;;;;;;;;;;-10.33;83.89;102948.48;1867422;77;20397;-37
2020/12/07 01:32:24;;;;;;;;;;;;;;;-10.33;83.89;102943.41;1867267;77;20229;-36
2020/12/07 01:34:53;;;;;;;;;;;;;;;-10.34;83.89;102925.14;1834291;77;20452;-36
2020/12/07 01:37:20;;;;;;;;;;;;;;;-10.36;83.89;102953.23;1867277;77;20126;-35
2020/12/07 01:39:48;;;;;;;;;;;;;;;-10.38;83.89;102958.53;1867221;77;20169;-36
2020/12/07 01:42:16;;;;;;;;;;;;;;;-10.40;83.94;102958.73;1867317;77;20392;-37
2020/12/07 01:44:45;;;;;;;;;;;;;;;-10.40;83.98;102950.23;1867112;77;20164;-36
2020/12/07 01:47:27;;;;;;;;;;;;;;;-10.42;84.00;102956.77;1867141;77;20164;-36
2020/12/07 01:49:58;;;;;;;;;;;;;;;-10.44;84.03;102979.45;1867489;76;20379;-36
2020/12/07 01:52:26;;;;;;;;;;;;;;;-10.48;84.04;102969.72;1867636;76;20160;-36
2020/12/07 01:54:54;;;;;;;;;;;;;;;-10.53;84.04;102960.38;1867291;77;20140;-36
2020/12/07 01:57:24;;;;;;;;;;;;;;;-10.57;84.11;102959.55;1867222;77;20144;-36
2020/12/07 01:59:53;;;;;;;;;;;;;;;-10.60;84.15;102972.25;1867481;77;20187;-35
2020/12/07 02:02:22;;;;;;;;;;;;;;;-10.63;84.19;102982.09;1867181;77;20386;-36
2020/12/07 02:04:50;;;;;;;;;;;;;;;-10.66;84.26;102981.75;1867439;77;20236;-35
2020/12/07 02:07:18;;;;;;;;;;;;;;;-10.70;84.32;102974.59;1823496;79;20185;-35
2020/12/07 02:09:48;;;;;;;;;;;;;;;-10.72;84.43;102970.98;1824360;78;20232;-36
2020/12/07 02:12:16;;;;;;;;;;;;;;;-10.72;84.54;102967.19;1832484;78;20157;-35
2020/12/07 02:14:44;;;;;;;;;;;;;;;-10.73;84.59;102968.81;1832735;78;20141;-36
2020/12/07 02:17:12;;;;;;;;;;;;;;;-10.72;84.72;102973.52;1832542;78;20458;-36
2020/12/07 02:19:41;;;;;;;;;;;;;;;-10.73;84.80;102957.41;1832533;78;20260;-37
2020/12/07 02:22:08;;;;;;;;;;;;;;;-10.70;84.87;102963.19;1805561;78;20263;-36
2020/12/07 02:26:51;;;;;;;;;;;;;;;-10.69;84.91;102956.98;1923221;74;20848;-36
2020/12/07 02:29:19;;;;;;;;;;;;;;;-10.75;84.93;102971.91;1887136;75;20136;-35
2020/12/07 02:31:49;;;;;;;;;;;;;;;-10.78;84.97;102973.78;1896851;75;20362;-35
2020/12/07 02:34:18;;;;;;;;;;;;;;;-10.78;85.03;102979.22;1903422;75;20469;-46
2020/12/07 02:36:48;;;;;;;;;;;;;;;-10.81;85.09;102970.91;1903205;75;20492;-40
2020/12/07 02:39:17;;;;;;;;;;;;;;;-10.81;85.13;102972.17;1878683;75;20137;-36
2020/12/07 02:41:49;;;;;;;;;;;;;;;-10.81;85.19;102971.27;1868086;76;20172;-35
2020/12/07 02:44:18;;;;;;;;;;;;;;;-10.80;85.26;102971.81;1867864;77;20259;-35
2020/12/07 02:46:47;;;;;;;;;;;;;;;-10.79;85.31;102969.81;1868092;77;20187;-46
2020/12/07 02:49:18;;;;;;;;;;;;;;;-10.79;85.31;102970.71;1868216;77;20168;-36
2020/12/07 02:51:47;;;;;;;;;;;;;;;-10.81;85.32;102967.11;1868377;76;20136;-36
2020/12/07 02:54:17;;;;;;;;;;;;;;;-10.82;85.35;102979.24;1868261;76;20136;-40
2020/12/07 02:56:45;;;;;;;;;;;;;;;-10.83;85.36;102974.04;1867907;77;20172;-35
2020/12/07 02:59:13;;;;;;;;;;;;;;;-10.86;85.39;102964.47;1875226;76;20247;-36
2020/12/07 03:01:41;;;;;;;;;;;;;;;-10.87;85.43;102965.20;1867963;77;20121;-36
2020/12/07 03:04:10;;;;;;;;;;;;;;;-10.87;85.50;102963.94;1867956;77;20220;-37
2020/12/07 03:06:38;;;;;;;;;;;;;;;-10.87;85.53;102955.08;1868341;75;20224;-36
2020/12/07 03:09:06;;;;;;;;;;;;;;;-10.87;85.55;102947.47;1868182;77;20135;-35
2020/12/07 03:11:34;;;;;;;;;;;;;;;-10.86;85.59;102942.05;1868078;77;20123;-35
2020/12/07 03:14:02;;;;;;;;;;;;;;;-10.85;85.58;102952.34;1868155;77;20165;-41
2020/12/07 03:16:31;;;;;;;;;;;;;;;-10.84;85.56;102958.31;1867854;77;20146;-36
2020/12/07 03:19:01;;;;;;;;;;;;;;;-10.85;85.58;102956.51;1867938;77;20154;-37
2020/12/07 03:21:29;;;;;;;;;;;;;;;-10.86;85.61;102954.34;1867984;77;20161;-37
2020/12/07 03:23:59;;;;;;;;;;;;;;;-10.84;85.59;102944.02;1866852;77;20225;-35
2020/12/07 03:26:28;;;;;;;;;;;;;;;-10.84;85.58;102956.67;1868223;77;20368;-46
2020/12/07 03:28:57;;;;;;;;;;;;;;;-10.82;85.54;102956.81;1868250;77;20127;-36
2020/12/07 03:31:25;;;;;;;;;;;;;;;-10.82;85.49;102946.67;1868052;77;20130;-37
2020/12/07 03:33:54;;;;;;;;;;;;;;;-10.82;85.46;102947.58;1868254;77;20475;-42
2020/12/07 03:36:24;;;;;;;;;;;;;;;-10.85;85.42;102952.70;1867924;77;20146;-36
2020/12/07 03:38:52;;;;;;;;;;;;;;;-10.88;85.42;102953.27;1867518;77;20483;-37
2020/12/07 03:41:20;;;;;;;;;;;;;;;-10.90;85.40;102967.07;1867287;77;20317;-36
2020/12/07 03:43:49;;;;;;;;;;;;;;;-10.93;85.40;102955.70;1867257;77;20134;-35
2020/12/07 03:46:18;;;;;;;;;;;;;;;-10.95;85.42;102952.09;1867353;77;20427;-36
2020/12/07 03:48:48;;;;;;;;;;;;;;;-10.96;85.41;102969.33;1867271;77;20166;-36
2020/12/07 03:51:17;;;;;;;;;;;;;;;-10.97;85.39;102973.49;1834429;77;20229;-36
2020/12/07 03:53:47;;;;;;;;;;;;;;;-10.97;85.37;102965.89;1867595;77;20131;-36
2020/12/07 03:56:15;;;;;;;;;;;;;;;-10.98;85.35;102964.45;1867388;77;20273;-37
2020/12/07 03:58:44;;;;;;;;;;;;;;;-11.00;85.36;102963.02;1867326;77;20158;-35
2020/12/07 04:01:13;;;;;;;;;;;;;;;-10.99;85.35;102972.78;1867263;77;20209;-37
2020/12/07 04:03:45;;;;;;;;;;;;;;;-11.00;85.31;102980.75;1867456;77;20428;-36
2020/12/07 04:06:34;;;;;;;;;;;;;;;-11.01;85.30;102980.22;1867393;77;20142;-35
2020/12/07 04:09:00;;;;;;;;;;;;;;;-11.02;85.25;102992.70;1869687;75;20142;-37
2020/12/07 04:11:28;;;;;;;;;;;;;;;-11.05;85.21;102985.70;1867321;77;20158;-35
2020/12/07 04:13:56;;;;;;;;;;;;;;;-11.06;85.18;102988.07;1867348;77;20296;-35
2020/12/07 04:16:27;;;;;;;;;;;;;;;-11.07;85.18;102993.86;1871997;75;20195;-36
2020/12/07 04:18:56;;;;;;;;;;;;;;;-11.09;85.16;102988.63;1882216;75;20427;-35
2020/12/07 04:21:24;;;;;;;;;;;;;;;-11.10;85.11;102980.90;1869128;75;20134;-45
2020/12/07 04:23:52;;;;;;;;;;;;;;;-11.12;85.10;102975.66;1867324;77;20215;-36
2020/12/07 04:26:22;;;;;;;;;;;;;;;-11.12;85.10;102976.03;1867581;77;20137;-35
2020/12/07 04:28:50;;;;;;;;;;;;;;;-11.14;85.08;102974.59;1867104;77;20133;-33
2020/12/07 04:31:18;;;;;;;;;;;;;;;-11.15;85.04;102980.75;1867317;77;20208;-35
2020/12/07 04:33:46;;;;;;;;;;;;;;;-11.17;85.04;102983.15;1867394;77;20259;-36
2020/12/07 04:36:13;;;;;;;;;;;;;;;-11.17;85.06;102985.68;1867149;77;20259;-37
2020/12/07 04:38:41;;;;;;;;;;;;;;;-11.18;85.03;102982.61;1846964;75;20281;-35
2020/12/07 04:41:09;;;;;;;;;;;;;;;-11.18;85.01;102980.08;1884836;75;20227;-37
2020/12/07 04:43:37;;;;;;;;;;;;;;;-11.17;84.99;102979.72;1873584;75;20178;-37
2020/12/07 04:46:05;;;;;;;;;;;;;;;-11.18;84.96;102979.18;1867080;77;20134;-37
2020/12/07 04:48:35;;;;;;;;;;;;;;;-11.18;84.94;102987.67;1867212;77;20296;-37
2020/12/07 04:51:02;;;;;;;;;;;;;;;-11.17;84.89;102980.98;1866530;77;20285;-44
2020/12/07 04:53:30;;;;;;;;;;;;;;;-11.17;84.83;102982.25;1867177;75;20213;-39
2020/12/07 04:55:58;;;;;;;;;;;;;;;-11.18;84.81;102988.94;1867014;77;20276;-37
2020/12/07 04:58:26;;;;;;;;;;;;;;;-11.18;84.78;102985.51;1869513;75;20234;-33
2020/12/07 05:00:54;;;;;;;;;;;;;;;-11.19;84.70;102990.94;1857479;75;20120;-37
2020/12/07 05:03:22;;;;;;;;;;;;;;;-11.20;84.67;102992.03;1896579;75;20254;-35
2020/12/07 05:05:53;;;;;;;;;;;;;;;-11.21;84.65;102994.03;1880115;75;20227;-35
2020/12/07 05:08:22;;;;;;;;;;;;;;;-11.21;84.65;102988.97;1867491;77;20150;-37
2020/12/07 05:10:50;;;;;;;;;;;;;;;-11.22;84.61;102980.47;1873259;75;20116;-35
2020/12/07 05:13:34;;;;;;;;;;;;;;;-11.21;84.60;102982.64;1867193;75;20158;-36
2020/12/07 05:15:57;;;;;;;;;;;;;;;-11.21;84.55;102973.77;1900950;75;20456;-37
2020/12/07 05:18:24;;;;;;;;;;;;;;;-11.21;84.54;102987.33;1885812;75;20145;-37
2020/12/07 05:20:53;;;;;;;;;;;;;;;-11.21;84.51;102988.97;1866802;75;20229;-38
2020/12/07 05:23:21;;;;;;;;;;;;;;;-11.20;84.48;102984.07;1866807;77;20276;-38
2020/12/07 05:25:49;;;;;;;;;;;;;;;-11.19;84.47;102982.44;1866867;75;20464;-35
2020/12/07 05:28:23;;;;;;;;;;;;;;;-11.18;84.43;102993.10;1866776;76;20122;-37
2020/12/07 05:30:49;;;;;;;;;;;;;;;-11.17;84.40;102994.91;1870479;75;20664;-36
2020/12/07 05:33:18;;;;;;;;;;;;;;;-11.16;84.37;102986.58;1868793;75;20160;-37
2020/12/07 05:35:52;;;;;;;;;;;;;;;-11.15;84.32;102980.39;1880328;75;20221;-38
2020/12/07 05:38:16;;;;;;;;;;;;;;;-11.13;84.28;102985.26;1873960;75;20194;-38
2020/12/07 05:40:44;;;;;;;;;;;;;;;-11.12;84.22;102976.93;1831417;75;20156;-36
2020/12/07 05:43:12;;;;;;;;;;;;;;;-11.09;84.16;102981.44;1869444;75;20185;-38
2020/12/07 05:45:41;;;;;;;;;;;;;;;-11.08;84.07;102979.03;1866091;75;20154;-45
2020/12/07 05:48:14;;;;;;;;;;;;;;;-11.07;84.02;102971.98;1879146;75;20133;-38
2020/12/07 05:50:43;;;;;;;;;;;;;;;-11.05;83.98;102958.22;1873026;75;20199;-39
2020/12/07 05:53:11;;;;;;;;;;;;;;;-11.03;83.87;102980.45;1870483;75;20134;-37
2020/12/07 05:55:38;;;;;;;;;;;;;;;-11.00;83.77;102978.22;1870696;75;20331;-37
2020/12/07 05:58:08;;;;;;;;;;;;;;;-10.98;83.69;102970.80;1854875;75;20324;-38
2020/12/07 06:00:36;;;;;;;;;;;;;;;-10.96;83.60;102976.52;1871545;75;20211;-42
2020/12/07 06:03:05;;;;;;;;;;;;;;;-10.93;83.52;102980.66;1870470;75;20227;-38
2020/12/07 06:05:35;;;;;;;;;;;;;;;-10.92;83.40;102983.73;1838754;77;20281;-39
2020/12/07 06:08:12;;;;;;;;;;;;;;;-10.88;83.29;102984.94;1793687;75;20188;-37
2020/12/07 06:10:54;;;;;;;;;;;;;;;-10.85;83.09;102989.07;1857004;75;20201;-37
2020/12/07 06:13:24;;;;;;;;;;;;;;;-10.82;82.98;102983.41;1836865;75;20143;-38
2020/12/07 06:15:53;;;;;;;;;;;;;;;-10.79;82.90;102981.21;1875767;75;20196;-39
2020/12/07 06:18:25;;;;;;;;;;;;;;;-10.77;82.72;102974.31;1866896;75;20224;-39
2020/12/07 06:20:56;;;;;;;;;;;;;;;-10.76;82.63;102972.69;1871910;75;20215;-38
2020/12/07 06:27:07;;;;;;;;;;;;;;;-10.65;82.37;102981.92;1885789;74;20175;-38
2020/12/07 06:29:36;;;;;;;;;;;;;;;-10.67;82.28;102984.66;1865958;75;20185;-39
2020/12/07 06:32:06;;;;;;;;;;;;;;;-10.64;82.07;102984.98;1876951;75;20170;-38
2020/12/07 06:34:41;;;;;;;;;;;;;;;-10.61;81.93;103001.77;1870058;75;20154;-44
2020/12/07 06:37:12;;;;;;;;;;;;;;;-10.57;81.82;102987.80;1874534;75;20233;-36
2020/12/07 06:39:44;;;;;;;;;;;;;;;-10.53;81.65;102971.78;1870376;75;20543;-39
2020/12/07 06:42:14;;;;;;;;;;;;;;;-10.46;81.45;102994.86;1867568;75;20230;-39
2020/12/07 06:44:44;;;;;;;;;;;;;;;-10.45;81.28;102990.33;1841222;75;20309;-39
2020/12/07 06:47:24;;;;;;;;;;;;;;;-10.39;81.12;102973.58;1877193;75;20891;-38
2020/12/07 06:52:23;;;;;;;;;;;;;;;-10.29;80.75;102969.97;1835118;76;20470;-38
2020/12/07 06:55:53;;;;;;;;;;;;;;;-10.25;80.64;102971.73;1814924;77;20176;-39
2020/12/07 06:57:42;;;;;;;;;;;;;;;-10.19;80.53;102974.89;1802830;77;20176;-40
2020/12/07 07:00:23;;;;;;;;;;;;;;;-10.12;80.30;102972.57;1836104;77;20279;-39
2020/12/07 07:02:58;;;;;;;;;;;;;;;-10.04;80.15;102967.88;1811411;77;20219;-39
2020/12/07 07:05:30;;;;;;;;;;;;;;;-9.97;79.94;102977.02;1834136;77;20390;-39
2020/12/07 07:07:59;;;;;;;;;;;;;;;-9.92;79.68;102987.28;1832906;77;20383;-38
2020/12/07 07:10:26;;;;;;;;;;;;;;;-9.84;79.52;102986.02;1834888;77;20283;-40
2020/12/07 07:12:55;;;;;;;;;;;;;;;-9.73;79.07;102987.13;1830457;77;20182;-38
2020/12/07 07:15:24;;;;;;;;;;;;;;;-9.64;78.80;102986.76;1832890;77;20184;-39
2020/12/07 07:17:54;;;;;;;;;;;;;;;-9.55;78.54;102981.34;1826462;77;20507;-38
2020/12/07 07:20:24;;;;;;;;;;;;;;;-9.43;78.25;102970.23;1787575;77;20152;-39
2020/12/07 07:22:55;;;;;;;;;;;;;;;-9.34;78.05;102977.14;1792088;77;20180;-38
2020/12/07 07:25:40;;;;;;;;;;;;;;;-9.20;77.74;102987.39;1827117;77;20558;-38
2020/12/07 07:30:31;;;;;;;;;;;;;;;-8.98;77.22;102991.64;1829728;78;20176;-38
2020/12/07 07:33:03;;;;;;;;;;;;;;;-8.83;76.90;102983.36;1749238;77;20199;-38
2020/12/07 07:35:34;;;;;;;;;;;;;;;-8.69;76.36;102986.49;1786091;78;20173;-39
2020/12/07 07:38:05;;;;;;;;;;;;;;;-8.56;75.94;102990.74;1765134;78;20181;-46
2020/12/07 07:40:34;;;;;;;;;;;;;;;-8.42;75.35;102971.72;1817052;78;20212;-39
2020/12/07 07:43:03;;;;;;;;;;;;;;;-8.35;74.68;102956.30;1782285;78;20425;-39
2020/12/07 07:45:37;;;;;;;;;;;;;;;-8.27;74.15;102963.35;1802257;78;20171;-39
2020/12/07 07:51:20;;;;;;;;;;;;;;;-8.09;72.98;102959.99;1779798;77;20499;-39
2020/12/07 08:16:21;;;;;;;;;;;;;;;-7.28;69.49;102917.03;1782725;78;20208;-43
2020/12/07 08:18:54;;;;;;;;;;;;;;;-7.26;69.20;102927.38;1832239;77;20185;-41
2020/12/07 08:21:33;;;;;;;;;;;;;;;-7.31;68.97;102912.95;1813060;77;20187;-43
2020/12/07 08:24:10;;;;;;;;;;;;;;;-7.37;68.96;102928.06;1784627;77;20198;-42
2020/12/07 08:26:42;;;;;;;;;;;;;;;-7.47;68.79;102927.59;1816692;78;20176;-43
2020/12/07 08:29:20;;;;;;;;;;;;;;;-7.45;69.05;102903.16;1779739;78;20205;-45
2020/12/07 08:31:55;;;;;;;;;;;;;;;-7.37;69.09;102881.83;1778527;77;20411;-42
2020/12/07 08:34:28;;;;;;;;;;;;;;;-7.33;68.79;102905.92;1802279;78;20444;-42
2020/12/07 08:36:57;;;;;;;;;;;;;;;-7.36;68.53;102910.75;1805769;78;20210;-43
2020/12/07 08:39:25;;;;;;;;;;;;;;;-7.41;68.64;102919.23;1809155;78;20155;-42
2020/12/07 08:41:54;;;;;;;;;;;;;;;-7.42;68.81;102894.92;1806717;78;20580;-42
2020/12/07 08:44:22;;;;;;;;;;;;;;;-7.46;68.82;102916.66;1790081;78;20189;-43
2020/12/07 08:46:51;;;;;;;;;;;;;;;-7.47;69.00;102906.31;1802417;78;20202;-42
2020/12/07 08:49:20;;;;;;;;;;;;;;;-7.41;69.05;102905.59;1811198;78;20325;-43
2020/12/07 08:51:47;;;;;;;;;;;;;;;-7.42;68.96;102897.47;1810341;78;20168;-43
2020/12/07 08:54:15;;;;;;;;;;;;;;;-7.42;68.99;102887.28;1806324;78;20194;-42
2020/12/07 08:56:44;;;;;;;;;;;;;;;-7.40;69.03;102902.30;1803492;78;20188;-44
2020/12/07 08:59:12;;;;;;;;;;;;;;;-7.38;69.00;102895.70;1811130;78;20218;-42
2020/12/07 09:01:41;;;;;;;;;;;;;;;-7.38;69.08;102881.31;1813774;78;20159;-42
2020/12/07 09:04:11;;;;;;;;;;;;;;;-7.30;69.08;102889.64;1804327;78;20211;-40
2020/12/07 09:06:40;;;;;;;;;;;;;;;-7.20;68.86;102876.06;1817837;78;20387;-38
2020/12/07 09:09:08;;;;;;;;;;;;;;;-7.15;68.63;102878.25;1802500;78;20145;-38
2020/12/07 09:11:36;;;;;;;;;;;;;;;-7.16;68.39;102882.86;1805120;78;20180;-38
2020/12/07 09:14:08;;;;;;;;;;;;;;;-7.20;68.26;102887.15;1806264;78;20194;-38
2020/12/07 09:16:36;;;;;;;;;;;;;;;-7.18;68.50;102891.12;1769521;80;20463;-39
2020/12/07 09:19:04;;;;;;;;;;;;;;;-7.02;68.54;102890.46;1802736;78;20270;-39
2020/12/07 09:21:32;;;;;;;;;;;;;;;-6.96;68.16;102873.16;1801052;78;20305;-39
2020/12/07 09:24:01;;;;;;;;;;;;;;;-6.96;67.96;102879.16;1774031;78;20146;-40
2020/12/07 09:26:30;;;;;;;;;;;;;;;-6.91;68.07;102874.45;1769721;80;20273;-39
2020/12/07 09:28:58;;;;;;;;;;;;;;;-6.90;67.89;102884.79;1811751;78;20297;-39
2020/12/07 09:31:26;;;;;;;;;;;;;;;-6.98;67.73;102878.49;1807318;78;20142;-39
2020/12/07 09:33:54;;;;;;;;;;;;;;;-6.96;67.97;102875.33;1800807;78;20437;-39
2020/12/07 09:36:22;;;;;;;;;;;;;;;-6.88;67.77;102881.97;1829168;78;20184;-39
2020/12/07 09:38:50;;;;;;;;;;;;;;;-6.89;67.63;102876.73;1803927;78;20115;-39
2020/12/07 09:41:20;;;;;;;;;;;;;;;-6.93;67.68;102875.58;1802499;78;20309;-39
2020/12/07 09:43:50;;;;;;;;;;;;;;;-6.91;67.68;102876.63;1772362;80;20206;-42
2020/12/07 09:46:19;;;;;;;;;;;;;;;-6.91;67.50;102871.52;1805993;78;20139;-43
2020/12/07 09:48:47;;;;;;;;;;;;;;;-6.91;67.37;102868.08;1813492;78;20250;-42
2020/12/07 09:51:15;;;;;;;;;;;;;;;-6.96;67.40;102861.69;1804807;78;20307;-42
2020/12/07 09:53:43;;;;;;;;;;;;;;;-6.95;67.49;102841.78;1804670;78;20137;-43
2020/12/07 09:56:12;;;;;;;;;;;;;;;-6.92;67.49;102854.43;1804565;78;20272;-44
2020/12/07 09:58:41;;;;;;;;;;;;;;;-6.90;67.49;102860.95;1832229;77;20194;-42
2020/12/07 10:01:10;;;;;;;;;;;;;;;-6.82;67.58;102859.94;1813558;78;20184;-42
2020/12/07 10:03:42;;;;;;;;;;;;;;;-6.75;67.32;102867.73;1823004;77;20125;-43
2020/12/07 10:06:12;;;;;;;;;;;;;;;-6.68;67.12;102863.69;1820679;78;20199;-42
2020/12/07 10:08:41;;;;;;;;;;;;;;;-6.63;67.03;102868.42;1802376;78;20143;-42
2020/12/07 10:11:13;;;;;;;;;;;;;;;-6.56;66.96;102855.44;1827188;77;21064;-42
2020/12/07 10:13:44;;;;;;;;;;;;;;;-6.51;66.85;102868.62;1822033;78;20153;-44
2020/12/07 10:16:13;;;;;;;;;;;;;;;-6.46;66.85;102852.94;1815633;77;20469;-42
2020/12/07 10:18:47;;;;;;;;;;;;;;;-6.37;66.83;102855.39;1813262;78;20169;-43
2020/12/07 10:21:23;;;;;;;;;;;;;;;-6.26;66.66;102842.26;1815975;78;20548;-42
2020/12/07 10:26:55;;;;;;;;;;;;;;;-5.98;66.11;102846.77;1884788;74;20254;-42
2020/12/07 10:29:24;;;;;;;;;;;;;;;-5.92;65.90;102853.28;1860506;75;20324;-43
2020/12/07 10:31:56;;;;;;;;;;;;;;;-5.79;65.41;102848.39;1866782;75;20448;-42
2020/12/07 10:34:27;;;;;;;;;;;;;;;-5.79;64.95;102851.33;1871919;75;20514;-44
2020/12/07 10:36:58;;;;;;;;;;;;;;;-5.82;64.70;102845.57;1869722;75;20178;-42
2020/12/07 10:39:29;;;;;;;;;;;;;;;-5.81;64.75;102836.25;1871864;75;20664;-42
2020/12/07 10:41:58;;;;;;;;;;;;;;;-5.79;64.54;102844.95;1867567;75;20194;-43
2020/12/07 10:44:28;;;;;;;;;;;;;;;-5.85;64.57;102831.67;1867916;75;20213;-42
2020/12/07 10:46:56;;;;;;;;;;;;;;;-5.81;64.64;102829.86;1867339;75;20649;-42
2020/12/07 10:49:26;;;;;;;;;;;;;;;-5.72;64.63;102825.16;1868323;75;20190;-42
2020/12/07 10:51:56;;;;;;;;;;;;;;;-5.64;64.58;102832.14;1868686;75;20187;-42
2020/12/07 10:54:28;;;;;;;;;;;;;;;-5.52;64.58;102829.34;1873571;75;20377;-42
2020/12/07 10:56:58;;;;;;;;;;;;;;;-5.36;64.29;102819.58;1873391;75;20191;-44
2020/12/07 10:59:28;;;;;;;;;;;;;;;-5.25;63.97;102807.69;1867773;75;20162;-43
2020/12/07 11:01:59;;;;;;;;;;;;;;;-5.20;63.79;102818.27;1868002;75;20221;-42
2020/12/07 11:04:28;;;;;;;;;;;;;;;-5.03;63.96;102825.61;1869903;75;20496;-41
2020/12/07 11:07:01;;;;;;;;;;;;;;;-4.89;63.47;102811.88;1835685;77;20464;-41
2020/12/07 11:09:33;;;;;;;;;;;;;;;-4.93;63.09;102806.03;1868655;75;20471;-41
2020/12/07 11:12:05;;;;;;;;;;;;;;;-4.95;63.05;102819.07;1867607;75;20221;-41
2020/12/07 11:14:33;;;;;;;;;;;;;;;-4.95;63.09;102811.78;1876856;75;20211;-42
2020/12/07 11:17:05;;;;;;;;;;;;;;;-4.89;63.16;102809.33;1875388;75;20290;-42
2020/12/07 11:19:42;;;;;;;;;;;;;;;-4.79;63.01;102809.64;1867546;75;20166;-42
2020/12/07 11:22:17;;;;;;;;;;;;;;;-4.74;62.73;102812.20;1871109;75;20388;-42
2020/12/07 11:24:48;;;;;;;;;;;;;;;-4.75;62.51;102802.73;1872223;75;20156;-48
2020/12/07 11:27:17;;;;;;;;;;;;;;;-4.82;62.28;102803.03;1837447;75;20188;-43
2020/12/07 11:29:46;;;;;;;;;;;;;;;-4.98;62.38;102799.63;1867072;75;20403;-48
2020/12/07 11:32:17;;;;;;;;;;;;;;;-5.04;62.73;102785.08;1836940;75;20174;-38
2020/12/07 11:34:46;;;;;;;;;;;;;;;-5.03;62.94;102783.42;1841653;75;20214;-39
2020/12/07 11:37:16;;;;;;;;;;;;;;;-5.04;63.07;102788.02;1879429;75;20190;-38
2020/12/07 11:40:58;;;;;;;;;;;;;;;-5.03;63.16;102791.09;1868437;75;20523;-40
2020/12/07 11:43:03;;;;;;;;;;;;;;;-5.05;63.23;102779.45;1823364;75;20491;-41
2020/12/07 11:45:27;;;;;;;;;;;;;;;-5.06;63.19;102784.09;1837252;75;20199;-39
2020/12/07 11:48:01;;;;;;;;;;;;;;;-5.08;62.92;102765.55;1825496;75;20231;-39
2020/12/07 11:50:32;;;;;;;;;;;;;;;-5.07;63.00;102775.02;1868193;75;20201;-40
2020/12/07 11:53:03;;;;;;;;;;;;;;;-4.97;63.10;102768.56;1839605;77;20492;-38
2020/12/07 11:55:33;;;;;;;;;;;;;;;-4.85;63.13;102778.47;1834972;77;20729;-38
2020/12/07 11:58:04;;;;;;;;;;;;;;;-4.82;62.89;102777.45;1803703;77;20205;-38
2020/12/07 12:00:36;;;;;;;;;;;;;;;-4.88;62.87;102780.80;1839036;77;20329;-39
2020/12/07 12:03:11;;;;;;;;;;;;;;;-4.98;63.10;102774.05;1833850;77;20399;-38
2020/12/07 12:05:47;;;;;;;;;;;;;;;-5.00;63.40;102760.28;1837646;77;20308;-45
2020/12/07 12:08:17;;;;;;;;;;;;;;;-5.06;63.40;102764.91;1837867;77;20493;-39
2020/12/07 12:10:52;;;;;;;;;;;;;;;-5.11;63.74;102771.30;1838053;77;20339;-39
2020/12/07 12:13:26;;;;;;;;;;;;;;;-5.12;64.07;102768.65;1806718;78;20139;-44
2020/12/07 12:16:05;;;;;;;;;;;;;;;-5.12;64.25;102778.87;1805094;77;20220;-40
2020/12/07 12:18:48;;;;;;;;;;;;;;;-5.14;64.35;102773.63;1748859;77;20212;-39
2020/12/07 12:21:27;;;;;;;;;;;;;;;-5.20;64.47;102768.04;1756106;78;20207;-38
2020/12/07 12:24:12;;;;;;;;;;;;;;;;;;;;;
2020/12/07 12:26:50;;;;;;;;;;;;;;;-5.35;64.89;102761.69;1771799;78;20296;-39
2020/12/07 12:29:22;;;;;;;;;;;;;;;-5.41;65.25;102758.64;1828573;77;20276;-39
2020/12/07 12:31:53;;;;;;;;;;;;;;;-5.45;65.43;102757.91;1782808;77;20201;-38
2020/12/07 12:34:23;;;;;;;;;;;;;;;-5.47;65.54;102740.27;1770421;77;20270;-39
2020/12/07 12:36:54;;;;;;;;;;;;;;;-5.48;65.71;102749.98;1834941;77;20185;-45
2020/12/07 12:39:26;;;;;;;;;;;;;;;-5.50;65.91;102734.89;1828854;77;20231;-40
2020/12/07 12:41:58;;;;;;;;;;;;;;;-5.53;66.11;102748.34;1834741;77;20435;-40
2020/12/07 12:44:29;;;;;;;;;;;;;;;-5.56;66.32;102754.47;1829476;77;20588;-38
2020/12/07 12:47:00;;;;;;;;;;;;;;;-5.59;66.58;102729.07;1831100;77;20180;-39
2020/12/07 12:49:32;;;;;;;;;;;;;;;-5.66;66.86;102738.80;1779847;77;20456;-39
2020/12/07 12:52:07;;;;;;;;;;;;;;;-5.69;67.13;102740.19;1801710;77;20208;-41
2020/12/07 12:54:41;;;;;;;;;;;;;;;-5.76;67.42;102738.80;1765775;77;20168;-40
2020/12/07 12:57:14;;;;;;;;;;;;;;;-5.81;67.70;102743.92;1803517;78;20218;-38
2020/12/07 12:59:47;;;;;;;;;;;;;;;-5.84;67.99;102750.46;1772698;78;20183;-39
2020/12/07 13:02:21;;;;;;;;;;;;;;;-5.86;68.18;102745.60;1805756;78;20187;-39
2020/12/07 13:04:52;;;;;;;;;;;;;;;-5.89;68.37;102752.65;1830806;77;20279;-39
2020/12/07 13:07:25;;;;;;;;;;;;;;;-5.90;68.50;102756.34;1750338;78;20418;-39
2020/12/07 13:09:57;;;;;;;;;;;;;;;-5.94;68.59;102750.48;1831279;77;20200;-38
2020/12/07 13:12:28;;;;;;;;;;;;;;;-5.97;68.74;102748.56;1800786;78;20218;-38
2020/12/07 13:15:00;;;;;;;;;;;;;;;-6.00;68.85;102747.05;1808558;77;20295;-39
2020/12/07 13:17:35;;;;;;;;;;;;;;;-6.02;68.92;102754.06;1835333;77;20189;-39
2020/12/07 13:20:08;;;;;;;;;;;;;;;-6.06;69.07;102758.04;1784944;78;20207;-39
2020/12/07 13:22:51;;;;;;;;;;;;;;;-6.09;69.21;102752.28;1784623;77;20257;-39
2020/12/07 13:25:29;;;;;;;;;;;;;;;-6.13;69.34;102756.64;1809513;77;20146;-39
2020/12/07 13:28:10;;;;;;;;;;;;;;;-6.18;69.48;102760.47;1800404;77;20194;-39